createdAt,value
2019-02-15T00:01:06.809Z,22.02
2019-02-15T00:04:13.852Z,17.50
2019-02-15T00:07:20.829Z,14.63
2019-02-15T00:10:27.903Z,14.90
2019-02-15T00:13:34.865Z,15.90
2019-02-15T00:16:42.005Z,9.78
2019-02-15T00:19:52.420Z,10.78
2019-02-15T00:22:59.576Z,17.80
2019-02-15T00:26:06.528Z,17.12
2019-02-15T00:29:13.849Z,15.58
2019-02-15T00:32:20.819Z,22.10
2019-02-15T00:35:27.895Z,25.08
2019-02-15T00:38:34.947Z,15.55
2019-02-15T00:41:41.870Z,13.03
2019-02-15T00:44:48.760Z,12.10
2019-02-15T00:48:00.287Z,14.95
2019-02-15T00:51:26.103Z,11.43
2019-02-15T00:54:52.070Z,16.25
2019-02-15T00:58:16.728Z,12.45
2019-02-15T01:01:53.566Z,15.40
2019-02-15T01:05:23.504Z,13.70
2019-02-15T01:08:52.420Z,13.95
2019-02-15T01:12:27.648Z,16.10
2019-02-15T01:15:34.610Z,15.28
2019-02-15T01:19:00.654Z,18.32
2019-02-15T01:22:07.617Z,15.90
2019-02-15T01:25:14.601Z,15.88
2019-02-15T01:28:36.012Z,18.85
2019-02-15T01:32:14.233Z,13.05
2019-02-15T01:35:59.466Z,13.62
2019-02-15T01:39:18.699Z,14.90
2019-02-15T01:42:50.272Z,11.30
2019-02-15T01:46:25.345Z,14.13
2019-02-15T01:49:32.382Z,18.95
2019-02-15T01:52:39.414Z,17.42
2019-02-15T01:55:46.637Z,15.40
2019-02-15T01:58:53.719Z,13.15
2019-02-15T02:02:01.019Z,9.00
2019-02-15T02:05:08.203Z,15.15
2019-02-15T02:08:34.638Z,14.95
2019-02-15T02:11:42.037Z,14.70
2019-02-15T02:14:49.227Z,13.65
2019-02-15T02:17:56.384Z,15.53
2019-02-15T02:21:03.770Z,14.90
2019-02-15T02:24:10.786Z,15.25
2019-02-15T02:27:18.156Z,13.80
2019-02-15T02:30:25.386Z,18.25
2019-02-15T02:33:32.920Z,13.35
2019-02-15T02:36:51.594Z,18.42
2019-02-15T02:39:58.792Z,20.80
2019-02-15T02:43:06.135Z,13.03
2019-02-15T02:46:13.508Z,19.10
2019-02-15T02:49:20.915Z,13.05
2019-02-15T02:52:28.187Z,12.60
2019-02-15T02:55:37.340Z,11.65
2019-02-15T02:58:44.746Z,11.97
2019-02-15T03:01:51.874Z,14.80
2019-02-15T03:04:59.101Z,15.25
2019-02-15T03:08:06.537Z,13.32
2019-02-15T03:11:13.593Z,18.65
2019-02-15T03:14:21.073Z,23.87
2019-02-15T03:17:28.012Z,13.62
2019-02-15T03:20:35.553Z,11.55
2019-02-15T03:23:43.065Z,18.05
2019-02-15T03:26:50.360Z,13.50
2019-02-15T03:29:57.777Z,18.73
2019-02-15T03:33:04.994Z,10.13
2019-02-15T03:36:18.346Z,11.25
2019-02-15T03:39:40.244Z,11.43
2019-02-15T03:42:47.313Z,16.20
2019-02-15T03:45:54.505Z,12.25
2019-02-15T03:49:01.757Z,18.95
2019-02-15T03:52:08.920Z,13.13
2019-02-15T03:55:15.783Z,14.15
2019-02-15T03:58:22.735Z,9.78
2019-02-15T04:01:29.657Z,14.43
2019-02-15T04:04:36.516Z,13.15
2019-02-15T04:07:43.838Z,17.00
2019-02-15T04:10:51.207Z,16.57
2019-02-15T04:13:58.462Z,14.40
2019-02-15T04:17:05.579Z,15.90
2019-02-15T04:20:12.542Z,19.85
2019-02-15T04:23:19.780Z,12.13
2019-02-15T04:26:29.683Z,17.27
2019-02-15T04:29:37.265Z,19.85
2019-02-15T04:32:44.346Z,12.03
2019-02-15T04:35:51.329Z,12.00
2019-02-15T04:38:58.396Z,15.43
2019-02-15T04:42:05.857Z,15.15
2019-02-15T04:45:12.962Z,26.15
2019-02-15T04:48:20.154Z,17.50
2019-02-15T04:51:27.243Z,14.60
2019-02-15T04:54:34.775Z,10.90
2019-02-15T04:57:42.204Z,13.95
2019-02-15T05:00:49.412Z,12.68
2019-02-15T05:03:56.464Z,15.28
2019-02-15T05:07:03.753Z,20.08
2019-02-15T05:10:10.955Z,16.55
2019-02-15T05:13:18.222Z,15.25
2019-02-15T05:16:25.572Z,14.03
2019-02-15T05:19:40.218Z,10.68
2019-02-15T05:22:47.321Z,17.35
2019-02-15T05:25:54.537Z,21.15
2019-02-15T05:29:01.475Z,13.83
2019-02-15T05:32:08.971Z,19.12
2019-02-15T05:35:16.211Z,15.32
2019-02-15T05:38:23.507Z,11.08
2019-02-15T05:41:30.564Z,15.88
2019-02-15T05:44:37.515Z,16.90
2019-02-15T05:47:44.552Z,35.33
2019-02-15T05:50:51.702Z,18.57
2019-02-15T05:53:58.694Z,12.37
2019-02-15T05:57:05.667Z,17.45
2019-02-15T06:00:12.650Z,12.75
2019-02-15T06:03:19.621Z,16.48
2019-02-15T06:06:26.683Z,13.40
2019-02-15T06:09:33.665Z,13.55
2019-02-15T06:12:40.662Z,12.33
2019-02-15T06:15:47.975Z,13.08
2019-02-15T06:18:55.136Z,12.60
2019-02-15T06:22:02.351Z,15.98
2019-02-15T06:25:09.639Z,14.98
2019-02-15T06:28:16.920Z,11.63
2019-02-15T06:31:24.311Z,16.45
2019-02-15T06:34:31.328Z,14.13
2019-02-15T06:37:38.550Z,12.50
2019-02-15T06:40:45.894Z,12.65
2019-02-15T06:43:52.958Z,13.88
2019-02-15T06:47:10.545Z,18.10
2019-02-15T06:50:17.849Z,19.50
2019-02-15T06:53:24.980Z,18.92
2019-02-15T06:56:35.263Z,16.15
2019-02-15T07:00:01.154Z,18.82
2019-02-15T07:06:39.555Z,17.40
2019-02-15T07:09:46.985Z,12.50
2019-02-15T07:12:54.086Z,22.95
2019-02-15T07:16:01.172Z,21.00
2019-02-15T07:19:08.381Z,18.37
2019-02-15T07:22:15.437Z,25.10
2019-02-15T07:25:22.553Z,25.90
2019-02-15T07:28:29.720Z,15.15
2019-02-15T07:31:39.457Z,17.17
2019-02-15T07:34:46.503Z,17.52
2019-02-15T07:37:53.826Z,19.07
2019-02-15T07:41:00.973Z,24.77
2019-02-15T07:44:08.057Z,16.35
2019-02-15T07:47:15.180Z,16.65
2019-02-15T07:50:22.339Z,18.07
2019-02-15T07:53:29.504Z,14.18
2019-02-15T07:56:37.003Z,15.58
2019-02-15T07:59:44.171Z,23.05
2019-02-15T08:02:51.436Z,23.32
2019-02-15T08:05:58.551Z,13.25
2019-02-15T08:09:10.739Z,14.55
2019-02-15T08:12:18.277Z,17.67
2019-02-15T08:15:25.561Z,13.22
2019-02-15T08:18:32.878Z,12.00
2019-02-15T08:21:39.818Z,13.10
2019-02-15T08:24:46.830Z,11.93
2019-02-15T08:27:53.779Z,14.70
2019-02-15T08:31:01.090Z,15.10
2019-02-15T08:34:08.522Z,12.05
2019-02-15T08:37:18.558Z,11.68
2019-02-15T08:40:25.856Z,13.10
2019-02-15T08:43:34.648Z,13.60
2019-02-15T08:46:42.478Z,14.23
2019-02-15T08:49:49.947Z,11.75
2019-02-15T08:52:57.621Z,14.40
2019-02-15T08:56:05.336Z,10.78
2019-02-15T08:59:13.907Z,12.15
2019-02-15T09:02:25.601Z,11.03
2019-02-15T09:05:33.036Z,12.83
2019-02-15T09:08:40.353Z,10.70
2019-02-15T09:11:47.796Z,11.17
2019-02-15T09:14:55.006Z,14.13
2019-02-15T09:18:02.397Z,18.77
2019-02-15T09:21:09.501Z,14.53
2019-02-15T09:24:16.598Z,15.03
2019-02-15T09:27:39.168Z,11.53
2019-02-15T09:30:50.481Z,12.23
2019-02-15T09:33:57.375Z,12.60
2019-02-15T09:37:04.456Z,10.90
2019-02-15T09:40:11.567Z,14.13
2019-02-15T09:43:18.619Z,15.47
2019-02-15T09:46:25.725Z,13.30
2019-02-15T09:49:32.979Z,11.17
2019-02-15T09:52:40.153Z,13.57
2019-02-15T09:55:47.250Z,12.57
2019-02-15T09:58:54.605Z,13.10
2019-02-15T10:02:01.686Z,17.13
2019-02-15T10:05:08.893Z,16.73
2019-02-15T10:08:16.115Z,11.77
2019-02-15T10:11:23.422Z,14.30
2019-02-15T10:14:30.386Z,11.07
2019-02-15T10:17:37.646Z,14.27
2019-02-15T10:20:46.562Z,12.10
2019-02-15T10:23:53.627Z,15.43
2019-02-15T10:27:00.843Z,16.17
2019-02-15T10:30:09.050Z,14.00
2019-02-15T10:33:16.332Z,15.47
2019-02-15T10:36:23.591Z,14.57
2019-02-15T10:39:31.034Z,15.13
2019-02-15T10:42:38.138Z,11.33
2019-02-15T10:45:45.218Z,12.70
2019-02-15T10:48:52.479Z,15.63
2019-02-15T10:51:59.671Z,15.30
2019-02-15T10:55:07.729Z,15.53
2019-02-15T10:58:27.940Z,12.43
2019-02-15T11:01:35.103Z,17.27
2019-02-15T11:04:42.129Z,12.80
2019-02-15T11:07:49.232Z,13.97
2019-02-15T11:10:56.335Z,15.77
2019-02-15T11:14:03.473Z,11.53
2019-02-15T11:17:10.581Z,16.13
2019-02-15T11:20:17.762Z,12.77
2019-02-15T11:23:24.851Z,13.97
2019-02-15T11:26:31.971Z,10.53
2019-02-15T11:29:39.061Z,11.33
2019-02-15T11:32:49.231Z,11.97
2019-02-15T11:35:56.439Z,11.57
2019-02-15T11:39:04.702Z,11.83
2019-02-15T11:42:11.966Z,11.47
2019-02-15T11:45:19.117Z,9.83
2019-02-15T11:48:26.403Z,14.80
2019-02-15T11:51:33.754Z,16.53
2019-02-15T11:54:40.919Z,11.97
2019-02-15T11:57:48.237Z,12.90
2019-02-15T12:00:55.443Z,13.00
2019-02-15T12:04:02.502Z,8.87
2019-02-15T12:07:09.673Z,10.57
2019-02-15T12:10:16.958Z,8.40
2019-02-15T12:13:24.396Z,9.17
2019-02-15T12:16:31.649Z,11.37
2019-02-15T12:19:44.824Z,14.17
2019-02-15T12:22:51.935Z,12.27
2019-02-15T12:25:59.300Z,11.33
2019-02-15T12:29:06.374Z,7.03
2019-02-15T12:32:13.676Z,12.27
2019-02-15T12:35:20.870Z,10.50
2019-02-15T12:38:28.193Z,8.63
2019-02-15T12:41:35.518Z,6.17
2019-02-15T12:44:42.618Z,6.93
2019-02-15T12:47:50.051Z,8.37
2019-02-15T12:50:57.137Z,8.77
2019-02-15T12:54:04.480Z,6.43
2019-02-15T12:57:11.695Z,9.77
2019-02-15T13:00:18.982Z,9.13
2019-02-15T13:03:26.059Z,5.60
2019-02-15T13:06:33.398Z,8.00
2019-02-15T13:09:40.822Z,6.53
2019-02-15T13:12:48.106Z,6.60
2019-02-15T13:15:55.478Z,4.97
2019-02-15T13:19:05.666Z,6.60
2019-02-15T13:22:12.710Z,5.53
2019-02-15T13:25:19.750Z,5.07
2019-02-15T13:28:26.848Z,6.43
2019-02-15T13:31:34.235Z,5.87
2019-02-15T13:34:41.822Z,6.40
2019-02-15T13:37:49.295Z,7.93
2019-02-15T13:40:56.484Z,6.43
2019-02-15T13:44:03.785Z,8.40
2019-02-15T13:47:11.254Z,3.83
2019-02-15T13:50:19.163Z,4.97
2019-02-15T13:53:26.625Z,1.57
2019-02-15T13:56:33.782Z,2.13
2019-02-15T13:59:41.080Z,1.30
2019-02-15T14:02:48.198Z,1.20
2019-02-15T14:05:55.218Z,1.20
2019-02-15T14:09:02.530Z,2.90
2019-02-15T14:12:09.707Z,2.13
2019-02-15T14:15:18.328Z,3.90
2019-02-15T14:18:25.399Z,2.93
2019-02-15T14:21:32.713Z,0.87
2019-02-15T14:24:39.841Z,1.93
2019-02-15T14:27:47.146Z,2.00
2019-02-15T14:30:54.359Z,2.30
2019-02-15T14:34:01.497Z,1.93
2019-02-15T14:37:08.555Z,1.70
2019-02-15T14:40:15.566Z,3.87
2019-02-15T14:43:22.678Z,1.63
2019-02-15T14:46:29.716Z,3.30
2019-02-15T14:49:36.930Z,1.40
2019-02-15T14:52:44.073Z,1.63
2019-02-15T14:55:51.039Z,2.67
2019-02-15T14:59:09.968Z,2.57
2019-02-15T15:02:17.255Z,3.40
2019-02-15T15:05:28.009Z,2.27
2019-02-15T15:08:34.944Z,1.93
2019-02-15T15:11:42.196Z,4.40
2019-02-15T15:14:49.213Z,4.37
2019-02-15T15:18:05.991Z,5.20
2019-02-15T15:21:24.009Z,2.30
2019-02-15T15:24:31.012Z,2.93
2019-02-15T15:27:38.224Z,3.67
2019-02-15T15:30:45.219Z,3.27
2019-02-15T15:33:52.190Z,4.23
2019-02-15T15:36:59.986Z,2.20
2019-02-15T15:40:08.986Z,4.60
2019-02-15T15:43:16.158Z,1.93
2019-02-15T15:46:23.234Z,14.13
2019-02-15T15:49:30.266Z,5.07
2019-02-15T15:52:56.337Z,12.17
2019-02-15T15:56:03.309Z,10.77
2019-02-15T15:59:10.465Z,9.90
2019-02-15T16:02:18.589Z,6.60
2019-02-15T16:05:25.921Z,5.97
2019-02-15T16:08:32.818Z,5.90
2019-02-15T16:11:40.256Z,7.93
2019-02-15T16:14:47.307Z,6.60
2019-02-15T16:17:57.633Z,8.67
2019-02-15T16:21:04.635Z,9.63
2019-02-15T16:24:12.917Z,9.67
2019-02-15T16:27:20.447Z,8.97
2019-02-15T16:30:38.761Z,8.50
2019-02-15T16:33:45.998Z,10.07
2019-02-15T16:36:53.100Z,7.70
2019-02-15T16:40:00.450Z,5.53
2019-02-15T16:43:10.655Z,7.03
2019-02-15T16:46:18.787Z,8.27
2019-02-15T16:49:25.955Z,9.33
2019-02-15T16:52:33.156Z,11.40
2019-02-15T16:55:59.048Z,11.90
2019-02-15T16:59:06.390Z,9.20
2019-02-15T17:02:13.404Z,9.17
2019-02-15T17:05:20.463Z,10.40
2019-02-15T17:08:27.625Z,7.10
2019-02-15T17:11:34.947Z,9.87
2019-02-15T17:14:42.164Z,9.77
2019-02-15T17:17:49.152Z,8.67
2019-02-15T17:20:56.384Z,8.03
2019-02-15T17:24:03.317Z,12.03
2019-02-15T17:27:10.339Z,8.47
2019-02-15T17:30:17.387Z,7.33
2019-02-15T17:33:24.344Z,15.37
2019-02-15T17:36:31.395Z,12.97
2019-02-15T17:39:39.440Z,9.90
2019-02-15T17:42:46.891Z,15.90
2019-02-15T17:45:53.918Z,10.10
2019-02-15T17:49:03.292Z,9.77
2019-02-15T17:52:10.372Z,10.90
2019-02-15T17:55:17.469Z,21.10
2019-02-15T17:58:25.046Z,11.23
2019-02-15T18:01:33.710Z,14.90
2019-02-15T18:04:40.981Z,18.00
2019-02-15T18:07:49.252Z,14.57
2019-02-15T18:10:56.372Z,30.57
2019-02-15T18:14:03.388Z,16.27
2019-02-15T18:17:10.437Z,13.77
2019-02-15T18:20:17.970Z,16.90
2019-02-15T18:23:25.021Z,17.57
2019-02-15T18:26:51.092Z,11.40
2019-02-15T18:29:58.246Z,18.90
2019-02-15T18:33:05.631Z,60.43
2019-02-15T18:36:13.015Z,24.00
2019-02-15T18:39:20.323Z,11.23
2019-02-15T18:42:27.515Z,23.50
2019-02-15T18:45:34.704Z,17.80
2019-02-15T18:48:41.791Z,19.03
2019-02-15T18:51:49.554Z,17.03
2019-02-15T18:54:56.684Z,11.97
2019-02-15T18:58:03.718Z,18.10
2019-02-15T19:01:10.683Z,20.70
2019-02-15T19:04:36.783Z,16.40
2019-02-15T19:08:02.765Z,17.30
2019-02-15T19:11:09.702Z,13.33
2019-02-15T19:14:17.571Z,11.47
2019-02-15T19:17:24.577Z,12.50
2019-02-15T19:20:31.484Z,12.85
2019-02-15T19:23:38.411Z,12.20
2019-02-15T19:26:45.555Z,16.40
2019-02-15T19:29:52.495Z,11.40
2019-02-15T19:33:00.568Z,11.90
2019-02-15T19:36:27.836Z,17.17
2019-02-15T19:39:35.002Z,16.30
2019-02-15T19:42:43.948Z,12.15
2019-02-15T19:45:52.885Z,13.22
2019-02-15T19:49:00.404Z,9.08
2019-02-15T19:52:07.593Z,14.58
2019-02-15T19:55:14.850Z,12.18
2019-02-15T19:58:21.820Z,9.53
2019-02-15T20:01:28.790Z,11.03
2019-02-15T20:04:35.985Z,11.90
2019-02-15T20:07:42.913Z,18.62
2019-02-15T20:10:49.826Z,12.15
2019-02-15T20:13:57.192Z,16.32
2019-02-15T20:17:04.498Z,15.40
2019-02-15T20:20:12.961Z,16.57
2019-02-15T20:23:20.845Z,17.32
2019-02-15T20:26:29.321Z,20.00
2019-02-15T20:29:36.642Z,11.95
2019-02-15T20:32:44.611Z,15.40
2019-02-15T20:35:51.761Z,17.62
2019-02-15T20:38:58.887Z,21.80
2019-02-15T20:42:05.831Z,25.05
2019-02-15T20:45:15.410Z,12.73
2019-02-15T20:48:22.380Z,17.35
2019-02-15T20:51:29.493Z,16.85
2019-02-15T20:54:36.797Z,17.92
2019-02-15T20:57:43.859Z,18.32
2019-02-15T21:00:50.945Z,21.30
2019-02-15T21:03:58.111Z,25.80
2019-02-15T21:07:05.110Z,17.40
2019-02-15T21:10:12.316Z,28.23
2019-02-15T21:13:20.881Z,25.20
2019-02-15T21:16:27.938Z,21.20
2019-02-15T21:19:34.880Z,16.87
2019-02-15T21:22:41.912Z,14.90
2019-02-15T21:25:48.936Z,16.60
2019-02-15T21:28:55.995Z,18.57
2019-02-15T21:32:21.954Z,18.57
2019-02-15T21:35:28.943Z,12.33
2019-02-15T21:38:36.041Z,18.75
2019-02-15T21:41:43.142Z,18.30
2019-02-15T21:44:50.099Z,16.97
2019-02-15T21:47:57.247Z,16.50
2019-02-15T21:51:04.471Z,10.03
2019-02-15T21:54:11.569Z,21.62
2019-02-15T21:57:37.569Z,18.02
2019-02-15T22:00:44.709Z,11.75
2019-02-15T22:03:51.972Z,13.93
2019-02-15T22:06:59.081Z,14.45
2019-02-15T22:10:06.386Z,18.37
2019-02-15T22:13:13.270Z,14.10
2019-02-15T22:16:20.243Z,17.42
2019-02-15T22:19:27.335Z,28.92
2019-02-15T22:22:34.498Z,19.62
2019-02-15T22:25:41.463Z,18.35
2019-02-15T22:28:48.628Z,15.48
2019-02-15T22:31:55.546Z,19.87
2019-02-15T22:35:03.552Z,16.57
2019-02-15T22:38:10.541Z,18.00
2019-02-15T22:41:18.190Z,16.17
2019-02-15T22:44:25.130Z,18.62
2019-02-15T22:47:32.066Z,17.10
2019-02-15T22:50:38.976Z,11.85
2019-02-15T22:53:46.038Z,17.30
2019-02-15T22:56:53.114Z,19.32
2019-02-15T23:00:01.250Z,14.95
2019-02-15T23:03:09.034Z,13.32
2019-02-15T23:06:15.982Z,16.00
2019-02-15T23:09:24.982Z,19.75
2019-02-15T23:12:31.961Z,16.07
2019-02-15T23:15:39.143Z,17.42
2019-02-15T23:18:46.095Z,13.38
2019-02-15T23:22:12.110Z,16.02
2019-02-15T23:25:19.094Z,24.12
2019-02-15T23:28:26.101Z,24.57
2019-02-15T23:31:33.270Z,21.73
2019-02-15T23:34:40.213Z,14.78
2019-02-15T23:37:47.447Z,14.75
2019-02-15T23:40:54.683Z,11.22
2019-02-15T23:44:01.753Z,16.97
2019-02-15T23:47:08.814Z,25.17
2019-02-15T23:50:16.593Z,17.55
2019-02-15T23:53:23.546Z,16.15
2019-02-15T23:56:30.607Z,19.20
2019-02-15T23:59:37.745Z,12.15
